Time,TemperatureF,DewpointF,PressureIn,WindDirection,WindDirectionDegrees,WindSpeedMPH,WindSpeedGustMPH,Humidity,HourlyPrecipIn,Conditions,Clouds,dailyrainin,SoftwareType,DateUTC
2013-01-11 00:00:00,59.7,58.3,30.15,South,173,0.0,4.0,95,0.00,CLR,BKN,0.05,WeatherDisplay:10.37,2013-01-11 05:00:00,
2013-01-11 00:02:00,57.0,52.9,30.25,NW,311,0.0,0.0,86,0.00,OVC,BKN,0.00,WeatherDisplay:10.37,2013-01-11 05:02:00,
2013-01-11 00:03:00,57.0,52.9,30.25,North,352,0.9,5.5,86,0.00,OVC,BKN,0.00,WeatherDisplay:10.37,2013-01-11 05:03:00,
2013-01-11 00:06:00,57.0,52.9,30.24,North,2,0.6,3.3,86,0.00,OVC,BKN,0.00,WeatherDisplay:10.37,2013-01-11 05:06:00,
2013-01-11 00:10:00,59.7,58.6,30.15,SSE,158,0.0,1.0,96,0.00,CLR,BKN,0.05,WeatherDisplay:10.37,2013-01-11 05:10:00,
2013-01-11 00:11:00,57.1,53.0,30.24,North,355,5.9,6.9,86,0.00,OVC,BKN,0.00,WeatherDisplay:10.37,2013-01-11 05:11:00,
2013-01-11 00:16:00,57.0,52.9,30.25,WNW,286,5.2,6.9,86,0.00,OVC,BKN,0.00,WeatherDisplay:10.37,2013-01-11 05:16:00,
2013-01-11 00:20:00,59.8,58.7,30.15,South,172,0.0,6.0,96,0.00,CLR,BKN,0.05,WeatherDisplay:10.37,2013-01-11 05:20:00,
2013-01-11 00:21:00,57.0,52.9,30.24,NNW,347,0.0,0.0,86,0.00,OVC,BKN,0.00,WeatherDisplay:10.37,2013-01-11 05:21:00,
2013-01-11 00:26:00,57.0,52.9,30.23,NW,324,2.2,4.6,86,0.00,OVC,BKN,0.00,WeatherDisplay:10.37,2013-01-11 05:26:00,
2013-01-11 00:30:00,59.9,58.8,30.15,SE,137,0.0,2.0,96,0.00,CLR,BKN,0.05,WeatherDisplay:10.37,2013-01-11 05:30:00,
2013-01-11 00:31:00,57.0,53.2,30.23,NW,322,0.0,0.0,87,0.00,OVC,BKN,0.00,WeatherDisplay:10.37,2013-01-11 05:31:00,
2013-01-11 00:36:00,57.0,53.2,30.23,NW,319,0.1,3.3,87,0.00,OVC,BKN,0.00,WeatherDisplay:10.37,2013-01-11 05:36:00,
2013-01-11 00:40:00,59.9,58.8,30.14,SSW,213,0.0,10.0,96,0.00,CLR,BKN,0.05,WeatherDisplay:10.37,2013-01-11 05:40:00,
2013-01-11 00:41:00,57.0,53.2,30.22,WNW,286,2.6,9.2,87,0.00,OVC,BKN,0.00,WeatherDisplay:10.37,2013-01-11 05:41:00,
2013-01-11 00:47:00,57.0,53.2,30.22,East,93,0.0,0.0,87,0.00,OVC,BKN,0.00,WeatherDisplay:10.37,2013-01-11 05:47:00,
2013-01-11 00:50:00,60.0,58.9,30.14,SSW,213,2.0,7.0,96,0.00,CLR,BKN,0.05,WeatherDisplay:10.37,2013-01-11 05:50:00,
2013-01-11 00:52:00,57.0,53.2,30.22,WSW,257,4.4,10.4,87,0.00,OVC,BKN,0.00,WeatherDisplay:10.37,2013-01-11 05:52:00,
2013-01-11 00:57:00,57.1,53.3,30.22,WNW,303,8.2,10.4,87,0.00,OVC,BKN,0.00,WeatherDisplay:10.37,2013-01-11 05:57:00,
2013-01-11 01:00:00,60.1,59.0,30.14,SSW,213,0.0,7.0,96,0.00,CLR,BKN,0.05,WeatherDisplay:10.37,2013-01-11 06:00:00,
2013-01-11 01:02:00,57.2,53.0,30.21,NW,309,8.2,13.8,86,0.00,OVC,BKN,0.00,WeatherDisplay:10.37,2013-01-11 06:02:00,
2013-01-11 01:07:00,57.4,53.2,30.22,SSW,203,3.4,5.8,86,0.00,OVC,BKN,0.00,WeatherDisplay:10.37,2013-01-11 06:07:00,
2013-01-11 01:10:00,60.1,59.0,30.14,SSW,192,0.0,5.0,96,0.00,CLR,BKN,0.05,WeatherDisplay:10.37,2013-01-11 06:10:00,
2013-01-11 01:12:00,57.5,53.3,30.22,NNE,23,1.7,15.0,86,0.00,OVC,BKN,0.00,WeatherDisplay:10.37,2013-01-11 06:12:00,
2013-01-11 01:17:00,57.7,53.5,30.22,WSW,254,14.2,18.4,86,0.00,OVC,BKN,0.00,WeatherDisplay:10.37,2013-01-11 06:17:00,
2013-01-11 01:20:00,60.0,58.9,30.13,WSW,239,2.0,7.0,96,0.01,RA,BKN,0.06,WeatherDisplay:10.37,2013-01-11 06:20:00,
2013-01-11 01:22:00,58.0,53.8,30.22,SW,216,8.8,10.9,86,0.00,OVC,BKN,0.00,WeatherDisplay:10.37,2013-01-11 06:22:00,
2013-01-11 01:27:00,58.0,53.8,30.22,SSW,196,7.4,18.4,86,0.00,OVC,BKN,0.00,WeatherDisplay:10.37,2013-01-11 06:27:00,
2013-01-11 01:30:00,60.1,59.0,30.13,SW,228,3.0,11.0,96,0.01,CLR,BKN,0.06,WeatherDisplay:10.37,2013-01-11 06:30:00,
2013-01-11 01:32:00,58.1,54.2,30.22,WSW,249,15.2,18.4,87,0.00,OVC,BKN,0.00,WeatherDisplay:10.37,2013-01-11 06:32:00,
2013-01-11 01:37:00,58.1,54.2,30.21,West,264,5.5,6.9,87,0.00,OVC,BKN,0.00,WeatherDisplay:10.37,2013-01-11 06:37:00,
2013-01-11 01:40:00,60.1,59.0,30.13,WSW,242,2.0,10.0,96,0.01,CLR,BKN,0.06,WeatherDisplay:10.37,2013-01-11 06:40:00,
2013-01-11 01:42:00,58.0,54.2,30.22,SSE,157,5.2,10.4,87,0.00,OVC,BKN,0.00,WeatherDisplay:10.37,2013-01-11 06:42:00,
2013-01-11 01:47:00,58.0,54.2,30.21,SSW,197,11.5,14.3,87,0.00,OVC,BKN,0.00,WeatherDisplay:10.37,2013-01-11 06:47:00,
2013-01-11 01:50:00,60.1,59.2,30.13,SW,233,5.0,8.0,97,0.01,CLR,BKN,0.06,WeatherDisplay:10.37,2013-01-11 06:50:00,
2013-01-11 01:52:00,57.9,54.4,30.21,SSW,213,2.0,12.7,88,0.00,OVC,BKN,0.00,WeatherDisplay:10.37,2013-01-11 06:52:00,
2013-01-11 01:57:00,57.9,54.4,30.22,ENE,68,2.0,5.5,88,0.00,OVC,BKN,0.00,WeatherDisplay:10.37,2013-01-11 06:57:00,
2013-01-11 02:00:00,60.1,59.2,30.13,SW,225,3.0,12.0,97,0.02,RA,BKN,0.07,WeatherDisplay:10.37,2013-01-11 07:00:00,
2013-01-11 02:03:00,57.8,54.3,30.22,South,172,1.3,12.7,88,0.00,OVC,BKN,0.00,WeatherDisplay:10.37,2013-01-11 07:03:00,
2013-01-11 02:08:00,57.8,54.3,30.21,SSW,199,4.5,6.9,88,0.00,OVC,BKN,0.00,WeatherDisplay:10.37,2013-01-11 07:08:00,
2013-01-11 02:10:00,60.2,59.3,30.13,SW,235,3.0,13.0,97,0.02,CLR,BKN,0.07,WeatherDisplay:10.37,2013-01-11 07:10:00,
2013-01-11 02:13:00,57.9,54.4,30.19,SE,137,0.1,1.1,88,0.00,OVC,BKN,0.00,WeatherDisplay:10.37,2013-01-11 07:13:00,
2013-01-11 02:18:00,57.9,54.4,30.19,North,352,0.0,1.1,88,0.00,OVC,BKN,0.00,WeatherDisplay:10.37,2013-01-11 07:18:00,
2013-01-11 02:20:00,60.2,59.3,30.13,SW,222,0.0,10.0,97,0.01,CLR,BKN,0.07,WeatherDisplay:10.37,2013-01-11 07:20:00,
2013-01-11 02:23:00,57.8,54.3,30.20,NE,45,0.0,0.0,88,0.00,OVC,BKN,0.00,WeatherDisplay:10.37,2013-01-11 07:23:00,
2013-01-11 02:28:00,57.8,54.3,30.20,North,7,2.1,5.8,88,0.00,OVC,BKN,0.00,WeatherDisplay:10.37,2013-01-11 07:28:00,
2013-01-11 02:30:00,60.2,59.3,30.13,SW,230,0.0,8.0,97,0.01,CLR,BKN,0.07,WeatherDisplay:10.37,2013-01-11 07:30:00,
2013-01-11 02:33:00,57.9,54.4,30.19,SE,146,9.5,18.4,88,0.00,OVC,BKN,0.00,WeatherDisplay:10.37,2013-01-11 07:33:00,
2013-01-11 02:38:00,58.1,54.6,30.20,WSW,250,0.0,1.1,88,0.00,OVC,BKN,0.00,WeatherDisplay:10.37,2013-01-11 07:38:00,
2013-01-11 02:40:00,60.2,59.3,30.13,SSW,200,2.0,11.0,97,0.01,CLR,BKN,0.07,WeatherDisplay:10.37,2013-01-11 07:40:00,
2013-01-11 02:43:00,58.1,54.6,30.20,ENE,58,3.3,5.8,88,0.00,OVC,BKN,0.00,WeatherDisplay:10.37,2013-01-11 07:43:00,
2013-01-11 02:48:00,58.1,54.6,30.20,NNE,21,0.2,2.2,88,0.00,OVC,BKN,0.00,WeatherDisplay:10.37,2013-01-11 07:48:00,
2013-01-11 02:50:00,60.2,59.3,30.13,SSW,209,5.0,8.0,97,0.01,CLR,BKN,0.07,WeatherDisplay:10.37,2013-01-11 07:50:00,
2013-01-11 02:53:00,58.0,54.5,30.20,ENE,60,3.9,5.8,88,0.00,OVC,BKN,0.00,WeatherDisplay:10.37,2013-01-11 07:53:00,
2013-01-11 02:58:00,57.8,54.6,30.19,ESE,109,2.8,6.9,89,0.00,OVC,BKN,0.00,WeatherDisplay:10.37,2013-01-11 07:58:00,
2013-01-11 03:00:00,60.2,59.3,30.13,SSW,213,5.0,10.0,97,0.00,CLR,BKN,0.07,WeatherDisplay:10.37,2013-01-11 08:00:00,
2013-01-11 03:03:00,57.6,54.7,30.19,NNE,16,0.0,1.1,90,0.00,-DZ,BKN,0.00,WeatherDisplay:10.37,2013-01-11 08:03:00,
2013-01-11 03:08:00,57.4,54.5,30.19,North,353,1.6,5.8,90,0.00,-DZ,BKN,0.00,WeatherDisplay:10.37,2013-01-11 08:08:00,
2013-01-11 03:10:00,60.3,59.4,30.12,SW,215,3.0,11.0,97,0.00,CLR,BKN,0.07,WeatherDisplay:10.37,2013-01-11 08:10:00,
2013-01-11 03:13:00,57.2,54.6,30.19,North,355,2.3,4.6,91,0.00,-DZ,BKN,0.00,WeatherDisplay:10.37,2013-01-11 08:13:00,
2013-01-11 03:19:00,57.0,54.4,30.19,East,95,0.0,5.8,91,0.00,-DZ,BKN,0.00,WeatherDisplay:10.37,2013-01-11 08:19:00,
2013-01-11 03:20:00,60.4,59.3,30.12,SW,217,0.0,6.0,96,0.00,CLR,BKN,0.07,WeatherDisplay:10.37,2013-01-11 08:20:00,
2013-01-11 03:24:00,56.8,54.5,30.20,NNE,31,0.3,5.8,92,0.00,-DZ,BKN,0.00,WeatherDisplay:10.37,2013-01-11 08:24:00,
2013-01-11 03:29:00,56.8,54.5,30.20,NE,56,0.7,8.1,92,0.00,-DZ,BKN,0.00,WeatherDisplay:10.37,2013-01-11 08:29:00,
2013-01-11 03:30:00,60.4,59.3,30.13,SSW,203,1.0,6.0,96,0.00,CLR,BKN,0.07,WeatherDisplay:10.37,2013-01-11 08:30:00,
2013-01-11 03:34:00,56.6,54.6,30.20,East,93,2.5,6.6,93,0.00,-DZ,BKN,0.00,WeatherDisplay:10.37,2013-01-11 08:34:00,
2013-01-11 03:39:00,56.7,54.7,30.19,NE,51,1.3,3.5,93,0.01,-DZ,BKN,0.01,WeatherDisplay:10.37,2013-01-11 08:39:00,
2013-01-11 03:40:00,60.5,59.4,30.13,SW,220,3.0,8.0,96,0.00,CLR,BKN,0.07,WeatherDisplay:10.37,2013-01-11 08:40:00,
2013-01-11 03:44:00,56.7,54.7,30.19,NE,50,0.0,0.0,93,0.01,-DZ,BKN,0.01,WeatherDisplay:10.37,2013-01-11 08:44:00,
2013-01-11 03:49:00,56.5,54.5,30.19,NE,43,4.6,9.2,93,0.01,-DZ,BKN,0.01,WeatherDisplay:10.37,2013-01-11 08:49:00,
2013-01-11 03:50:00,60.5,59.4,30.13,SW,221,2.0,7.0,96,0.00,CLR,BKN,0.07,WeatherDisplay:10.37,2013-01-11 08:50:00,
2013-01-11 03:54:00,56.4,54.7,30.19,SE,140,0.0,0.0,94,0.01,-DZ,BKN,0.01,WeatherDisplay:10.37,2013-01-11 08:54:00,
2013-01-11 03:59:00,56.3,54.6,30.18,West,263,3.4,9.2,94,0.01,-DZ,BKN,0.01,WeatherDisplay:10.37,2013-01-11 08:59:00,
2013-01-11 04:00:00,60.5,59.4,30.14,SW,223,3.0,6.0,96,0.00,CLR,BKN,0.07,WeatherDisplay:10.37,2013-01-11 09:00:00,
2013-01-11 04:04:00,56.3,54.6,30.18,East,81,2.7,4.6,94,0.01,OVC,BKN,0.01,WeatherDisplay:10.37,2013-01-11 09:04:00,
2013-01-11 04:09:00,56.4,55.0,30.17,ENE,60,0.0,3.5,95,0.01,OVC,BKN,0.01,WeatherDisplay:10.37,2013-01-11 09:09:00,
2013-01-11 04:10:00,60.5,59.4,30.13,SW,229,3.0,14.0,96,0.00,CLR,BKN,0.07,WeatherDisplay:10.37,2013-01-11 09:10:00,
2013-01-11 04:14:00,56.5,55.1,30.17,NE,53,1.7,8.1,95,0.01,OVC,BKN,0.01,WeatherDisplay:10.37,2013-01-11 09:14:00,
2013-01-11 04:19:00,56.6,54.9,30.17,NNE,32,8.9,8.9,94,0.01,OVC,BKN,0.01,WeatherDisplay:10.37,2013-01-11 09:19:00,
2013-01-11 04:20:00,60.5,59.4,30.13,SW,229,6.0,12.0,96,0.00,CLR,BKN,0.07,WeatherDisplay:10.37,2013-01-11 09:20:00,
2013-01-11 04:24:00,56.5,54.8,30.17,East,91,3.6,8.1,94,0.01,OVC,BKN,0.01,WeatherDisplay:10.37,2013-01-11 09:24:00,
2013-01-11 04:29:00,56.5,55.1,30.16,North,357,0.0,2.3,95,0.01,OVC,BKN,0.01,WeatherDisplay:10.37,2013-01-11 09:29:00,
2013-01-11 04:30:00,60.5,59.4,30.13,SW,231,0.0,12.0,96,0.00,CLR,BKN,0.07,WeatherDisplay:10.37,2013-01-11 09:30:00,
2013-01-11 04:35:00,56.6,55.2,30.16,SSE,160,7.6,12.7,95,0.01,OVC,BKN,0.01,WeatherDisplay:10.37,2013-01-11 09:35:00,
2013-01-11 04:40:00,56.8,55.1,30.15,East,83,9.0,15.0,94,0.00,OVC,BKN,0.01,WeatherDisplay:10.37,2013-01-11 09:40:00,
2013-01-11 04:45:00,57.1,55.4,30.15,WNW,283,8.5,10.4,94,0.00,OVC,BKN,0.01,WeatherDisplay:10.37,2013-01-11 09:45:00,
2013-01-11 04:50:00,57.5,55.5,30.16,SW,224,14.6,18.4,93,0.00,OVC,BKN,0.01,WeatherDisplay:10.37,2013-01-11 09:50:00,
2013-01-11 04:55:00,57.8,55.5,30.16,SE,143,7.8,12.7,92,0.00,OVC,BKN,0.01,WeatherDisplay:10.37,2013-01-11 09:55:00,
2013-01-11 05:00:00,58.2,55.6,30.16,SSW,194,8.0,24.0,91,0.00,OVC,BKN,0.01,WeatherDisplay:10.37,2013-01-11 10:00:00,
2013-01-11 05:05:00,58.4,55.8,30.16,SW,222,12.4,16.9,91,0.00,OVC,BKN,0.01,WeatherDisplay:10.37,2013-01-11 10:05:00,
2013-01-11 05:10:00,58.4,55.5,30.16,SSW,207,16.7,26.5,90,0.00,OVC,BKN,0.01,WeatherDisplay:10.37,2013-01-11 10:10:00,
2013-01-11 05:15:00,58.6,55.4,30.15,SSW,212,12.2,15.7,89,0.00,OVC,BKN,0.01,WeatherDisplay:10.37,2013-01-11 10:15:00,
2013-01-11 05:20:00,58.7,55.5,30.14,SW,232,22.0,23.0,89,0.00,OVC,BKN,0.01,WeatherDisplay:10.37,2013-01-11 10:20:00,
2013-01-11 05:25:00,58.7,55.5,30.15,WSW,250,10.4,21.9,89,0.00,OVC,BKN,0.01,WeatherDisplay:10.37,2013-01-11 10:25:00,
2013-01-11 05:30:00,58.7,55.5,30.15,ESE,117,9.0,23.0,89,0.00,OVC,BKN,0.01,WeatherDisplay:10.37,2013-01-11 10:30:00,
2013-01-11 05:35:00,58.7,55.5,30.16,SSW,193,14.1,16.1,89,0.00,OVC,BKN,0.01,WeatherDisplay:10.37,2013-01-11 10:35:00,
2013-01-11 05:40:00,58.8,55.9,30.15,SW,226,13.5,16.1,90,0.01,RA,BKN,0.02,WeatherDisplay:10.37,2013-01-11 10:40:00,
2013-01-11 05:45:00,58.6,56.0,30.15,South,185,10.9,15.0,91,0.02,RA,BKN,0.03,WeatherDisplay:10.37,2013-01-11 10:45:00,
2013-01-11 05:50:00,60.0,59.1,30.13,SW,220,5.0,11.0,97,0.03,CLR,BKN,0.10,WeatherDisplay:10.37,2013-01-11 10:50:00,
2013-01-11 05:51:00,58.5,55.9,30.15,SSW,199,0.9,8.1,91,0.02,RA,BKN,0.03,WeatherDisplay:10.37,2013-01-11 10:51:00,
2013-01-11 05:56:00,58.3,55.7,30.15,South,191,3.7,5.8,91,0.02,OVC,BKN,0.03,WeatherDisplay:10.37,2013-01-11 10:56:00,
2013-01-11 06:00:00,59.9,59.0,30.14,SW,228,2.0,8.0,97,0.03,CLR,BKN,0.10,WeatherDisplay:10.37,2013-01-11 11:00:00,
2013-01-11 06:01:00,58.1,55.8,30.15,South,176,4.7,9.9,92,0.02,OVC,BKN,0.03,WeatherDisplay:10.37,2013-01-11 11:01:00,
2013-01-11 06:06:00,58.0,55.7,30.15,SW,226,14.8,19.6,92,0.02,BKN,,0.03,WeatherDisplay:10.37,2013-01-11 11:06:00,
2013-01-11 06:10:00,59.9,59.9,30.14,SW,215,2.0,7.0,100,0.02,CLR,BKN,0.10,WeatherDisplay:10.37,2013-01-11 11:10:00,
2013-01-11 06:11:00,57.9,55.6,30.15,SW,218,7.2,12.7,92,0.02,BKN,,0.03,WeatherDisplay:10.37,2013-01-11 11:11:00,
2013-01-11 06:16:00,57.9,55.9,30.15,SW,220,12.6,13.8,93,0.02,BKN,,0.03,WeatherDisplay:10.37,2013-01-11 11:16:00,
2013-01-11 06:20:00,59.9,59.9,30.14,SW,215,0.0,8.0,100,0.01,CLR,BKN,0.10,WeatherDisplay:10.37,2013-01-11 11:20:00,
2013-01-11 06:21:00,57.9,55.9,30.15,SSW,197,13.7,19.6,93,0.02,BKN,,0.03,WeatherDisplay:10.37,2013-01-11 11:21:00,
2013-01-11 06:26:00,57.9,55.9,30.15,SSW,207,9.5,21.9,93,0.02,BKN,,0.03,WeatherDisplay:10.37,2013-01-11 11:26:00,
2013-01-11 06:30:00,59.8,59.8,30.14,SSW,211,0.0,8.0,100,0.00,CLR,BKN,0.10,WeatherDisplay:10.37,2013-01-11 11:30:00,
2013-01-11 06:31:00,58.0,56.0,30.16,SSW,206,10.5,15.0,93,0.02,BKN,,0.03,WeatherDisplay:10.37,2013-01-11 11:31:00,
2013-01-11 06:36:00,58.3,56.3,30.16,SSW,211,14.7,15.0,93,0.02,BKN,,0.03,WeatherDisplay:10.37,2013-01-11 11:36:00,
2013-01-11 06:40:00,59.8,59.8,30.14,SW,224,0.0,7.0,100,0.00,CLR,BKN,0.10,WeatherDisplay:10.37,2013-01-11 11:40:00,
2013-01-11 06:41:00,58.5,56.2,30.17,SSW,210,9.2,12.7,92,0.01,BKN,,0.03,WeatherDisplay:10.37,2013-01-11 11:41:00,
2013-01-11 06:46:00,58.7,56.4,30.17,SSE,167,7.5,10.4,92,0.00,BKN,,0.03,WeatherDisplay:10.37,2013-01-11 11:46:00,
2013-01-11 06:50:00,59.9,59.9,30.14,SW,227,0.0,5.0,100,0.01,RA,BKN,0.11,WeatherDisplay:10.37,2013-01-11 11:50:00,
2013-01-11 06:51:00,58.9,56.6,30.17,SW,232,10.8,16.9,92,0.00,BKN,,0.03,WeatherDisplay:10.37,2013-01-11 11:51:00,
2013-01-11 06:56:00,58.9,56.6,30.17,SSW,203,15.5,26.5,92,0.00,BKN,,0.03,WeatherDisplay:10.37,2013-01-11 11:56:00,
2013-01-11 07:00:00,59.9,59.9,30.14,SW,220,2.0,7.0,100,0.01,CLR,BKN,0.11,WeatherDisplay:10.37,2013-01-11 12:00:00,
2013-01-11 07:02:00,58.9,56.3,30.16,South,184,16.5,20.6,91,0.01,RA,BKN,0.04,WeatherDisplay:10.37,2013-01-11 12:02:00,
2013-01-11 07:07:00,58.9,56.3,30.16,SSW,195,11.6,16.1,91,0.01,RA,BKN,0.04,WeatherDisplay:10.37,2013-01-11 12:07:00,
2013-01-11 07:10:00,59.9,59.0,30.14,SSW,199,3.0,10.0,97,0.01,CLR,BKN,0.11,WeatherDisplay:10.37,2013-01-11 12:10:00,
2013-01-11 07:12:00,59.0,56.1,30.16,SSW,205,24.5,39.1,90,0.01,OVC,BKN,0.04,WeatherDisplay:10.37,2013-01-11 12:12:00,
2013-01-11 07:17:00,58.9,56.3,30.16,SSW,209,10.8,18.2,91,0.01,OVC,BKN,0.04,WeatherDisplay:10.37,2013-01-11 12:17:00,
2013-01-11 07:20:00,59.9,59.0,30.15,SW,215,3.0,10.0,97,0.01,CLR,BKN,0.11,WeatherDisplay:10.37,2013-01-11 12:20:00,
2013-01-11 07:22:00,58.8,56.2,30.17,SSW,199,17.5,21.9,91,0.01,OVC,BKN,0.04,WeatherDisplay:10.37,2013-01-11 12:22:00,
2013-01-11 07:27:00,58.8,56.5,30.17,SSW,212,18.9,24.2,92,0.01,OVC,BKN,0.04,WeatherDisplay:10.37,2013-01-11 12:27:00,
2013-01-11 07:30:00,59.9,59.9,30.14,SSW,198,3.0,9.0,100,0.01,CLR,BKN,0.11,WeatherDisplay:10.37,2013-01-11 12:30:00,
2013-01-11 07:32:00,58.7,56.4,30.17,SSW,211,13.9,16.1,92,0.01,OVC,BKN,0.04,WeatherDisplay:10.37,2013-01-11 12:32:00,
2013-01-11 07:37:00,58.5,56.2,30.18,SSW,203,15.7,25.3,92,0.01,OVC,BKN,0.04,WeatherDisplay:10.37,2013-01-11 12:37:00,
2013-01-11 07:40:00,59.9,59.9,30.15,SSW,210,2.0,5.0,100,0.02,RA,BKN,0.12,WeatherDisplay:10.37,2013-01-11 12:40:00,
2013-01-11 07:42:00,58.5,56.5,30.18,South,174,16.9,23.0,93,0.01,OVC,BKN,0.04,WeatherDisplay:10.37,2013-01-11 12:42:00,
2013-01-11 07:47:00,58.5,56.5,30.19,SW,224,16.1,23.0,93,0.02,RA,BKN,0.05,WeatherDisplay:10.37,2013-01-11 12:47:00,
2013-01-11 07:50:00,59.9,59.9,30.15,SSW,197,3.0,7.0,100,0.03,RA,BKN,0.14,WeatherDisplay:10.37,2013-01-11 12:50:00,
2013-01-11 07:52:00,58.5,56.5,30.19,SW,234,7.7,12.7,93,0.02,RA,BKN,0.05,WeatherDisplay:10.37,2013-01-11 12:52:00,
2013-01-11 07:57:00,58.4,56.4,30.18,WSW,239,5.4,12.7,93,0.02,OVC,BKN,0.05,WeatherDisplay:10.37,2013-01-11 12:57:00,
2013-01-11 08:00:00,59.9,59.9,30.15,SSW,210,8.0,12.0,100,0.06,RA,BKN,0.17,WeatherDisplay:10.37,2013-01-11 13:00:00,
2013-01-11 08:02:00,58.4,56.4,30.18,South,179,8.0,11.5,93,0.01,OVC,BKN,0.05,WeatherDisplay:10.37,2013-01-11 13:02:00,
2013-01-11 08:07:00,58.4,56.4,30.19,SSE,164,6.4,10.4,93,0.01,OVC,BKN,0.05,WeatherDisplay:10.37,2013-01-11 13:07:00,
2013-01-11 08:10:00,60.0,60.0,30.15,SSW,209,7.0,17.0,100,0.09,RA,BKN,0.20,WeatherDisplay:10.37,2013-01-11 13:10:00,
2013-01-11 08:12:00,58.5,56.5,30.18,SSE,168,10.9,18.4,93,0.01,OVC,BKN,0.05,WeatherDisplay:10.37,2013-01-11 13:12:00,
2013-01-11 08:17:00,58.5,56.5,30.19,SSW,199,0.8,12.7,93,0.01,OVC,BKN,0.05,WeatherDisplay:10.37,2013-01-11 13:17:00,
2013-01-11 08:20:00,60.0,60.0,30.15,SSW,209,3.0,17.0,100,0.11,RA,BKN,0.22,WeatherDisplay:10.37,2013-01-11 13:20:00,
2013-01-11 08:23:00,58.5,56.2,30.19,South,172,20.9,26.5,92,0.01,OVC,BKN,0.05,WeatherDisplay:10.37,2013-01-11 13:23:00,
2013-01-11 08:28:00,58.7,56.4,30.19,SSW,212,13.7,24.2,92,0.01,OVC,BKN,0.05,WeatherDisplay:10.37,2013-01-11 13:28:00,
2013-01-11 08:30:00,60.0,60.0,30.15,SW,214,2.0,8.0,100,0.11,CLR,BKN,0.22,WeatherDisplay:10.37,2013-01-11 13:30:00,
2013-01-11 08:33:00,58.8,56.5,30.19,SW,230,7.0,12.7,92,0.01,OVC,BKN,0.05,WeatherDisplay:10.37,2013-01-11 13:33:00,
2013-01-11 08:38:00,58.8,56.5,30.18,WSW,246,0.5,10.4,92,0.01,OVC,BKN,0.05,WeatherDisplay:10.37,2013-01-11 13:38:00,
2013-01-11 08:40:00,59.9,59.9,30.15,SW,230,5.0,10.0,100,0.11,RA,BKN,0.23,WeatherDisplay:10.37,2013-01-11 13:40:00,
2013-01-11 08:43:00,58.8,56.8,30.18,NNE,26,2.1,4.6,93,0.01,OVC,BKN,0.05,WeatherDisplay:10.37,2013-01-11 13:43:00,
2013-01-11 08:48:00,58.8,56.5,30.18,WSW,242,1.2,3.6,92,0.00,OVC,BKN,0.05,WeatherDisplay:10.37,2013-01-11 13:48:00,
2013-01-11 08:50:00,59.9,59.9,30.14,SSW,209,7.0,12.0,100,0.09,CLR,BKN,0.23,WeatherDisplay:10.37,2013-01-11 13:50:00,
2013-01-11 08:53:00,58.8,56.8,30.18,North,2,0.1,1.1,93,0.00,OVC,BKN,0.05,WeatherDisplay:10.37,2013-01-11 13:53:00,
2013-01-11 08:58:00,58.7,56.7,30.18,NE,37,1.6,3.5,93,0.00,OVC,BKN,0.05,WeatherDisplay:10.37,2013-01-11 13:58:00,
2013-01-11 09:00:00,59.8,59.8,30.16,SW,217,2.0,12.0,100,0.06,CLR,BKN,0.23,WeatherDisplay:10.37,2013-01-11 14:00:00,
2013-01-11 09:03:00,58.6,56.6,30.19,NE,44,3.3,5.8,93,0.00,OVC,BKN,0.05,WeatherDisplay:10.37,2013-01-11 14:03:00,
2013-01-11 09:08:00,58.5,56.5,30.19,NE,54,0.0,0.0,93,0.00,OVC,BKN,0.05,WeatherDisplay:10.37,2013-01-11 14:08:00,
2013-01-11 09:10:00,59.9,59.9,30.15,SSW,197,8.0,13.0,100,0.04,RA,BKN,0.24,WeatherDisplay:10.37,2013-01-11 14:10:00,
2013-01-11 09:13:00,58.4,56.7,30.19,NE,50,0.7,2.3,94,0.00,OVC,BKN,0.05,WeatherDisplay:10.37,2013-01-11 14:13:00,
2013-01-11 09:18:00,58.4,56.7,30.19,SW,216,7.2,12.7,94,0.00,OVC,BKN,0.05,WeatherDisplay:10.37,2013-01-11 14:18:00,
2013-01-11 09:20:00,59.9,59.9,30.15,SW,227,0.0,11.0,100,0.03,RA,BKN,0.25,WeatherDisplay:10.37,2013-01-11 14:20:00,
2013-01-11 09:23:00,58.5,56.8,30.19,WSW,241,1.6,9.2,94,0.00,OVC,BKN,0.05,WeatherDisplay:10.37,2013-01-11 14:23:00,
2013-01-11 09:28:00,58.6,56.9,30.19,SE,128,5.2,6.6,94,0.00,OVC,BKN,0.05,WeatherDisplay:10.37,2013-01-11 14:28:00,
2013-01-11 09:34:00,58.7,57.0,30.19,SSE,159,0.0,4.6,94,0.00,OVC,BKN,0.05,WeatherDisplay:10.37,2013-01-11 14:34:00,
2013-01-11 09:39:00,58.7,57.0,30.19,SW,215,11.8,20.6,94,0.00,OVC,BKN,0.05,WeatherDisplay:10.37,2013-01-11 14:39:00,
2013-01-11 09:44:00,59.1,57.1,30.18,SSE,147,9.6,21.9,93,0.00,OVC,BKN,0.05,WeatherDisplay:10.37,2013-01-11 14:44:00,
2013-01-11 09:49:00,59.4,57.4,30.19,West,264,5.2,10.4,93,0.00,OVC,BKN,0.05,WeatherDisplay:10.37,2013-01-11 14:49:00,
2013-01-11 09:54:00,59.5,57.2,30.19,WSW,257,0.0,1.1,92,0.00,OVC,BKN,0.05,WeatherDisplay:10.37,2013-01-11 14:54:00,
2013-01-11 09:59:00,59.6,57.3,30.18,SW,221,2.2,7.3,92,0.00,OVC,BKN,0.05,WeatherDisplay:10.37,2013-01-11 14:59:00,
2013-01-11 10:04:00,59.8,57.5,30.18,WSW,249,1.0,4.6,92,0.00,-RA,BKN,0.05,WeatherDisplay:10.37,2013-01-11 15:04:00,
2013-01-11 10:09:00,59.9,57.6,30.18,SSW,209,0.0,1.2,92,0.00,-RA,BKN,0.05,WeatherDisplay:10.37,2013-01-11 15:09:00,
2013-01-11 10:14:00,59.9,57.6,30.19,NNE,18,0.0,0.0,92,0.00,-RA,BKN,0.05,WeatherDisplay:10.37,2013-01-11 15:14:00,
2013-01-11 10:19:00,59.8,57.5,30.19,NNE,22,0.0,1.1,92,0.00,-RA,BKN,0.05,WeatherDisplay:10.37,2013-01-11 15:19:00,
2013-01-11 10:24:00,59.7,57.4,30.19,ENE,78,0.0,2.3,92,0.00,-RA,BKN,0.05,WeatherDisplay:10.37,2013-01-11 15:24:00,
2013-01-11 10:26:00,59.7,57.7,30.19,NE,53,4.0,5.8,93,0.00,-RA,BKN,0.05,WeatherDisplay:10.37,2013-01-11 15:26:00,
2013-01-11 10:29:00,59.7,57.7,30.19,NE,53,4.0,5.8,93,0.00,-RA,BKN,0.05,WeatherDisplay:10.37,2013-01-11 15:29:00,
2013-01-11 10:34:00,59.7,57.7,30.19,NE,53,4.0,5.8,93,0.00,-RA,BKN,0.05,WeatherDisplay:10.37,2013-01-11 15:34:00,
2013-01-11 21:23:00,59.9,59.9,30.15,SW,214,4.2,16.9,100,0.03,RA,BKN,0.25,WeatherDisplay:10.37,2013-01-12 02:23:00,
2013-01-11 21:28:00,60.0,60.0,30.16,SW,235,0.9,3.6,100,0.03,-RA,BKN,0.25,WeatherDisplay:10.37,2013-01-12 02:28:00,
2013-01-11 21:33:00,60.0,60.0,30.16,SW,222,2.0,3.5,100,0.03,-RA,BKN,0.25,WeatherDisplay:10.37,2013-01-12 02:33:00,
2013-01-11 21:38:00,60.0,60.0,30.16,SW,221,0.0,1.1,100,0.02,-RA,BKN,0.25,WeatherDisplay:10.37,2013-01-12 02:38:00,
2013-01-11 21:43:00,60.1,60.1,30.16,SW,221,0.2,4.6,100,0.03,-RA,BKN,0.26,WeatherDisplay:10.37,2013-01-12 02:43:00,
2013-01-11 21:49:00,60.1,60.1,30.16,SSW,208,6.6,6.9,100,0.04,-RA,BKN,0.27,WeatherDisplay:10.37,2013-01-12 02:49:00,
2013-01-11 21:54:00,60.1,60.1,30.16,SW,214,6.4,6.9,100,0.05,-RA,BKN,0.28,WeatherDisplay:10.37,2013-01-12 02:54:00,
2013-01-11 21:59:00,60.1,60.1,30.16,South,176,1.3,5.8,100,0.06,-RA,BKN,0.29,WeatherDisplay:10.37,2013-01-12 02:59:00,
2013-01-11 22:04:00,60.2,60.2,30.16,SW,216,4.8,6.9,100,0.06,RA,BKN,0.29,WeatherDisplay:10.37,2013-01-12 03:04:00,
2013-01-11 22:09:00,60.2,60.2,30.16,SSW,205,2.1,5.5,100,0.05,OVC,BKN,0.29,WeatherDisplay:10.37,2013-01-12 03:09:00,
2013-01-11 22:14:00,60.2,60.2,30.16,South,186,1.8,5.5,100,0.06,RA,BKN,0.30,WeatherDisplay:10.37,2013-01-12 03:14:00,
2013-01-11 22:19:00,60.2,60.2,30.16,SSW,193,0.0,1.1,100,0.06,RA,BKN,0.31,WeatherDisplay:10.37,2013-01-12 03:19:00,
2013-01-11 22:24:00,60.2,60.2,30.16,SSW,193,4.1,5.8,100,0.06,RA,BKN,0.31,WeatherDisplay:10.37,2013-01-12 03:24:00,
2013-01-11 22:29:00,60.3,60.3,30.16,SSW,195,5.2,8.1,100,0.07,RA,BKN,0.32,WeatherDisplay:10.37,2013-01-12 03:29:00,
2013-01-11 22:34:00,60.3,60.3,30.16,SSE,165,3.4,6.9,100,0.08,RA,BKN,0.33,WeatherDisplay:10.37,2013-01-12 03:34:00,
2013-01-11 22:39:00,60.3,60.3,30.16,SSW,193,1.1,6.9,100,0.08,RA,BKN,0.33,WeatherDisplay:10.37,2013-01-12 03:39:00,
2013-01-11 22:44:00,60.3,60.3,30.16,SW,214,3.0,3.6,100,0.08,RA,BKN,0.34,WeatherDisplay:10.37,2013-01-12 03:44:00,
2013-01-11 22:49:00,60.3,60.3,30.16,SSW,200,3.9,6.9,100,0.08,RA,BKN,0.35,WeatherDisplay:10.37,2013-01-12 03:49:00,
2013-01-11 22:54:00,60.3,60.3,30.16,SW,216,3.4,6.1,100,0.07,RA,BKN,0.35,WeatherDisplay:10.37,2013-01-12 03:54:00,
2013-01-11 22:59:00,60.4,60.4,30.16,South,188,0.4,3.5,100,0.06,OVC,BKN,0.36,WeatherDisplay:10.37,2013-01-12 03:59:00,
2013-01-11 23:05:00,60.4,60.4,30.16,SW,235,2.1,5.8,100,0.07,RA,BKN,0.36,WeatherDisplay:10.37,2013-01-12 04:05:00,
2013-01-11 23:10:00,60.4,60.4,30.16,SSW,212,4.1,10.4,100,0.07,RA,BKN,0.36,WeatherDisplay:10.37,2013-01-12 04:10:00,
2013-01-11 23:15:00,60.4,60.4,30.16,West,264,0.4,2.4,100,0.06,OVC,BKN,0.36,WeatherDisplay:10.37,2013-01-12 04:15:00,
2013-01-11 23:20:00,60.4,60.4,30.16,SW,218,1.2,8.5,100,0.06,RA,BKN,0.37,WeatherDisplay:10.37,2013-01-12 04:20:00,
2013-01-11 23:25:00,60.4,60.4,30.16,South,184,1.9,4.6,100,0.06,RA,BKN,0.37,WeatherDisplay:10.37,2013-01-12 04:25:00,
2013-01-11 23:30:00,60.5,60.5,30.16,SSW,203,6.9,9.2,100,0.05,OVC,BKN,0.37,WeatherDisplay:10.37,2013-01-12 04:30:00,
2013-01-11 23:35:00,60.4,60.4,30.16,SSE,155,4.2,8.1,100,0.04,OVC,BKN,0.37,WeatherDisplay:10.37,2013-01-12 04:35:00,
2013-01-11 23:40:00,60.4,60.4,30.16,West,268,0.7,3.6,100,0.05,RA,BKN,0.38,WeatherDisplay:10.37,2013-01-12 04:40:00,
2013-01-11 23:45:00,60.4,60.4,30.16,SSE,152,2.6,5.8,100,0.04,RA,BKN,0.38,WeatherDisplay:10.37,2013-01-12 04:45:00,
2013-01-11 23:50:00,60.5,60.5,30.16,South,185,4.0,5.8,100,0.04,RA,BKN,0.39,WeatherDisplay:10.37,2013-01-12 04:50:00,
2013-01-11 23:55:00,60.6,60.6,30.16,SW,215,3.1,5.8,100,0.04,RA,BKN,0.39,WeatherDisplay:10.37,2013-01-12 04:55:00,